JBU1738 KBOS-KDCA
Flight info
| Callsign | JBU1738 |
|---|---|
| Flight time | 1h 21m |
| Altitude | 32000 |
| Route | SSOXS7 SSOXS Q167 ZIZZI KNUKK ATR LAFLN DEALE3 |
| Aircraft | A320/M-SDE3FGHIRWY/LB1 |
Departure
| Time | 2026-05-08 01:37 |
|---|---|
| Airport | Boston Logan International Airport (KBOS) |
Arrival
| Time | 2026-05-08 02:59 |
|---|---|
| Airport | Ronald Reagan Washington National Airport (KDCA) |
| Time | Latitude | Longitude | Altitude | Speed | Heading |
|---|---|---|---|---|---|
| 2026-05-08 01:15 | 42.36547 | -71.01708 | 20 ft | 0 kts | 333° |
| 2026-05-08 01:26 | 42.36545 | -71.01707 | 20 ft | 2 kts | 333° |
| 2026-05-08 01:26 | 42.36532 | -71.01698 | 21 ft | 2 kts | 332° |
| 2026-05-08 01:27 | 42.36519 | -71.01688 | 20 ft | 3 kts | 331° |
| 2026-05-08 01:27 | 42.36503 | -71.01674 | 20 ft | 3 kts | 304° |
| 2026-05-08 01:27 | 42.36494 | -71.01653 | 21 ft | 2 kts | 322° |
| 2026-05-08 01:27 | 42.36481 | -71.01647 | 19 ft | 2 kts | 44° |
| 2026-05-08 01:28 | 42.36476 | -71.01653 | 19 ft | 2 kts | 81° |
| 2026-05-08 01:28 | 42.36471 | -71.01636 | 18 ft | 2 kts | 121° |
| 2026-05-08 01:28 | 42.36470 | -71.01634 | 18 ft | 0 kts | 121° |
| 2026-05-08 01:30 | 42.36467 | -71.01627 | 18 ft | 3 kts | 121° |
| 2026-05-08 01:30 | 42.36451 | -71.01593 | 18 ft | 5 kts | 121° |
| 2026-05-08 01:31 | 42.36417 | -71.01518 | 17 ft | 14 kts | 122° |
| 2026-05-08 01:31 | 42.36368 | -71.01385 | 15 ft | 17 kts | 115° |
| 2026-05-08 01:31 | 42.36306 | -71.01247 | 18 ft | 17 kts | 122° |
| 2026-05-08 01:31 | 42.36246 | -71.01102 | 17 ft | 19 kts | 114° |
| 2026-05-08 01:32 | 42.36190 | -71.00933 | 18 ft | 20 kts | 114° |
| 2026-05-08 01:32 | 42.36131 | -71.00755 | 13 ft | 22 kts | 111° |
| 2026-05-08 01:32 | 42.36080 | -71.00551 | 15 ft | 23 kts | 107° |
| 2026-05-08 01:32 | 42.36028 | -71.00345 | 18 ft | 24 kts | 110° |
| 2026-05-08 01:33 | 42.35973 | -71.00138 | 18 ft | 19 kts | 110° |
| 2026-05-08 01:33 | 42.35889 | -70.99987 | 20 ft | 21 kts | 136° |
| 2026-05-08 01:33 | 42.35782 | -70.99845 | 18 ft | 23 kts | 135° |
| 2026-05-08 01:33 | 42.35662 | -70.99682 | 16 ft | 26 kts | 135° |
| 2026-05-08 01:34 | 42.35536 | -70.99514 | 12 ft | 22 kts | 135° |
| 2026-05-08 01:34 | 42.35488 | -70.99400 | 13 ft | 12 kts | 86° |
| 2026-05-08 01:34 | 42.35491 | -70.99375 | 13 ft | 0 kts | 77° |
| 2026-05-08 01:35 | 42.35492 | -70.99372 | 13 ft | 1 kts | 77° |
| 2026-05-08 01:36 | 42.35498 | -70.99336 | 13 ft | 9 kts | 76° |
| 2026-05-08 01:36 | 42.35546 | -70.99280 | 14 ft | 11 kts | 358° |
| 2026-05-08 01:36 | 42.35610 | -70.99351 | 12 ft | 14 kts | 315° |
| 2026-05-08 01:36 | 42.35785 | -70.99588 | 16 ft | 66 kts | 315° |
| 2026-05-08 01:37 | 42.36257 | -71.00221 | 15 ft | 120 kts | 315° |
| 2026-05-08 01:37 | 42.36944 | -71.01141 | 83 ft | 154 kts | 315° |
| 2026-05-08 01:37 | 42.37698 | -71.02118 | 673 ft | 150 kts | 314° |
| 2026-05-08 01:37 | 42.38411 | -71.03151 | 1248 ft | 150 kts | 303° |
| 2026-05-08 01:38 | 42.38956 | -71.04459 | 1553 ft | 168 kts | 298° |
| 2026-05-08 01:38 | 42.39530 | -71.05921 | 1916 ft | 185 kts | 298° |
| 2026-05-08 01:38 | 42.40180 | -71.07560 | 2186 ft | 211 kts | 298° |
| 2026-05-08 01:38 | 42.40770 | -71.09474 | 2611 ft | 233 kts | 278° |
| 2026-05-08 01:39 | 42.40441 | -71.11681 | 3225 ft | 252 kts | 245° |
| 2026-05-08 01:39 | 42.39486 | -71.13686 | 4130 ft | 256 kts | 237° |
| 2026-05-08 01:39 | 42.38388 | -71.15635 | 4920 ft | 263 kts | 234° |
| 2026-05-08 01:39 | 42.37216 | -71.17550 | 5820 ft | 267 kts | 226° |
| 2026-05-08 01:40 | 42.35669 | -71.18991 | 6649 ft | 275 kts | 206° |
| 2026-05-08 01:40 | 42.34419 | -71.19487 | 7204 ft | 281 kts | 191° |
| 2026-05-08 01:40 | 42.32456 | -71.19361 | 8036 ft | 289 kts | 167° |
| 2026-05-08 01:40 | 42.30557 | -71.18487 | 8862 ft | 293 kts | 163° |
| 2026-05-08 01:41 | 42.28629 | -71.17543 | 9670 ft | 296 kts | 163° |
| 2026-05-08 01:41 | 42.26659 | -71.16547 | 10346 ft | 304 kts | 161° |
| 2026-05-08 01:41 | 42.24727 | -71.15084 | 10523 ft | 333 kts | 148° |
| 2026-05-08 01:41 | 42.22892 | -71.12994 | 10656 ft | 358 kts | 141° |
| 2026-05-08 01:42 | 42.21006 | -71.10710 | 11069 ft | 368 kts | 142° |
| 2026-05-08 01:42 | 42.19069 | -71.08414 | 11680 ft | 373 kts | 143° |
| 2026-05-08 01:42 | 42.17098 | -71.06113 | 12310 ft | 377 kts | 144° |
| 2026-05-08 01:42 | 42.15111 | -71.03865 | 12940 ft | 378 kts | 148° |
| 2026-05-08 01:43 | 42.12949 | -71.01832 | 13589 ft | 380 kts | 152° |
| 2026-05-08 01:43 | 42.10762 | -70.99799 | 14190 ft | 383 kts | 152° |
| 2026-05-08 01:43 | 42.08570 | -70.97758 | 14796 ft | 385 kts | 153° |
| 2026-05-08 01:43 | 42.06365 | -70.95705 | 15400 ft | 386 kts | 153° |
| 2026-05-08 01:44 | 42.04150 | -70.93640 | 16020 ft | 388 kts | 154° |
| 2026-05-08 01:44 | 42.01930 | -70.91568 | 16636 ft | 389 kts | 154° |
| 2026-05-08 01:44 | 41.99701 | -70.89487 | 17271 ft | 391 kts | 155° |
| 2026-05-08 01:44 | 41.97459 | -70.87398 | 17893 ft | 393 kts | 155° |
| 2026-05-08 01:45 | 41.95207 | -70.85307 | 18473 ft | 395 kts | 155° |
| 2026-05-08 01:45 | 41.92928 | -70.83196 | 18997 ft | 399 kts | 155° |
| 2026-05-08 01:45 | 41.90637 | -70.81078 | 19521 ft | 402 kts | 156° |
| 2026-05-08 01:45 | 41.88217 | -70.79293 | 20023 ft | 392 kts | 167° |
| 2026-05-08 01:46 | 41.85656 | -70.78212 | 20509 ft | 382 kts | 178° |
| 2026-05-08 01:46 | 41.83045 | -70.77845 | 20982 ft | 373 kts | 189° |
| 2026-05-08 01:46 | 41.80489 | -70.78148 | 21428 ft | 366 kts | 199° |
| 2026-05-08 01:46 | 41.78059 | -70.79067 | 21863 ft | 361 kts | 208° |
| 2026-05-08 01:47 | 41.75817 | -70.80533 | 22305 ft | 358 kts | 215° |
| 2026-05-08 01:47 | 41.73637 | -70.82184 | 22749 ft | 361 kts | 215° |
| 2026-05-08 01:47 | 41.71462 | -70.83820 | 23164 ft | 364 kts | 215° |
| 2026-05-08 01:48 | 41.67003 | -70.87165 | 23904 ft | 370 kts | 215° |
| 2026-05-08 01:48 | 41.64754 | -70.88849 | 24252 ft | 372 kts | 215° |
| 2026-05-08 01:48 | 41.62492 | -70.90538 | 24600 ft | 374 kts | 215° |
| 2026-05-08 01:48 | 41.60214 | -70.92236 | 24941 ft | 376 kts | 215° |
| 2026-05-08 01:49 | 41.57927 | -70.93940 | 25277 ft | 377 kts | 215° |
| 2026-05-08 01:49 | 41.55743 | -70.95852 | 25609 ft | 373 kts | 224° |
| 2026-05-08 01:49 | 41.53866 | -70.98218 | 25953 ft | 370 kts | 232° |
| 2026-05-08 01:49 | 41.52334 | -71.00962 | 26301 ft | 369 kts | 239° |
| 2026-05-08 01:50 | 41.50915 | -71.03824 | 26650 ft | 371 kts | 239° |
| 2026-05-08 01:50 | 41.49482 | -71.06691 | 27007 ft | 372 kts | 239° |
| 2026-05-08 01:50 | 41.48040 | -71.09566 | 27352 ft | 373 kts | 239° |
| 2026-05-08 01:50 | 41.46593 | -71.12447 | 27696 ft | 375 kts | 239° |
| 2026-05-08 01:51 | 41.45141 | -71.15332 | 28072 ft | 375 kts | 239° |
| 2026-05-08 01:51 | 41.43692 | -71.18207 | 28583 ft | 372 kts | 239° |
| 2026-05-08 01:51 | 41.42256 | -71.21056 | 29096 ft | 370 kts | 239° |
| 2026-05-08 01:51 | 41.40825 | -71.23898 | 29605 ft | 367 kts | 239° |
| 2026-05-08 01:52 | 41.39423 | -71.26674 | 30075 ft | 365 kts | 239° |
| 2026-05-08 01:52 | 41.37988 | -71.29513 | 30501 ft | 363 kts | 239° |
| 2026-05-08 01:52 | 41.36583 | -71.32300 | 30894 ft | 362 kts | 239° |
| 2026-05-08 01:52 | 41.35199 | -71.35046 | 31275 ft | 361 kts | 239° |
| 2026-05-08 01:53 | 41.33802 | -71.37819 | 31667 ft | 361 kts | 239° |
| 2026-05-08 01:53 | 41.32405 | -71.40588 | 32066 ft | 360 kts | 239° |
| 2026-05-08 01:53 | 41.31012 | -71.43348 | 32460 ft | 359 kts | 239° |
| 2026-05-08 01:53 | 41.29618 | -71.46099 | 32850 ft | 358 kts | 239° |
| 2026-05-08 01:54 | 41.28227 | -71.48839 | 33259 ft | 357 kts | 239° |
| 2026-05-08 01:54 | 41.26839 | -71.51571 | 33670 ft | 356 kts | 239° |
| 2026-05-08 01:54 | 41.25452 | -71.54304 | 33849 ft | 357 kts | 239° |
| 2026-05-08 01:54 | 41.24051 | -71.57062 | 33880 ft | 362 kts | 239° |
| 2026-05-08 01:55 | 41.21230 | -71.62614 | 33879 ft | 363 kts | 239° |
| 2026-05-08 01:55 | 41.18398 | -71.68174 | 33877 ft | 363 kts | 239° |
| 2026-05-08 01:56 | 41.15564 | -71.73718 | 33877 ft | 363 kts | 239° |
| 2026-05-08 01:56 | 41.12737 | -71.79265 | 33893 ft | 362 kts | 239° |
| 2026-05-08 01:57 | 41.09925 | -71.84805 | 33904 ft | 362 kts | 239° |
| 2026-05-08 01:57 | 41.07102 | -71.90347 | 33906 ft | 362 kts | 239° |
| 2026-05-08 01:58 | 41.04282 | -71.95879 | 33914 ft | 362 kts | 239° |
| 2026-05-08 01:58 | 41.01963 | -72.01743 | 33912 ft | 359 kts | 247° |
| 2026-05-08 01:59 | 40.99874 | -72.07699 | 33921 ft | 359 kts | 246° |
| 2026-05-08 01:59 | 40.97754 | -72.13688 | 33924 ft | 359 kts | 246° |
| 2026-05-08 02:00 | 40.95639 | -72.19670 | 33892 ft | 358 kts | 246° |
| 2026-05-08 02:00 | 40.93523 | -72.25628 | 33894 ft | 358 kts | 246° |
| 2026-05-08 02:01 | 40.91176 | -72.31430 | 33905 ft | 362 kts | 237° |
| 2026-05-08 02:01 | 40.87652 | -72.36277 | 33893 ft | 367 kts | 230° |
| 2026-05-08 02:02 | 40.84019 | -72.41017 | 33897 ft | 367 kts | 231° |
| 2026-05-08 02:02 | 40.80384 | -72.45771 | 33895 ft | 368 kts | 230° |
| 2026-05-08 02:03 | 40.76434 | -72.50149 | 33900 ft | 372 kts | 226° |
| 2026-05-08 02:03 | 40.72438 | -72.54478 | 33901 ft | 372 kts | 226° |
| 2026-05-08 02:04 | 40.68462 | -72.58777 | 33904 ft | 372 kts | 227° |
| 2026-05-08 02:04 | 40.64551 | -72.63209 | 33902 ft | 370 kts | 228° |
| 2026-05-08 02:05 | 40.60695 | -72.67711 | 33903 ft | 370 kts | 228° |
| 2026-05-08 02:05 | 40.56825 | -72.72196 | 33897 ft | 371 kts | 228° |
| 2026-05-08 02:06 | 40.52942 | -72.76651 | 33896 ft | 371 kts | 228° |
| 2026-05-08 02:06 | 40.49048 | -72.81092 | 33894 ft | 371 kts | 228° |
| 2026-05-08 02:07 | 40.45153 | -72.85534 | 33900 ft | 371 kts | 228° |
| 2026-05-08 02:07 | 40.41261 | -72.89976 | 33895 ft | 370 kts | 228° |
| 2026-05-08 02:08 | 40.37368 | -72.94414 | 33899 ft | 370 kts | 228° |
| 2026-05-08 02:08 | 40.33482 | -72.98848 | 33894 ft | 370 kts | 228° |
| 2026-05-08 02:09 | 40.29585 | -73.03269 | 33893 ft | 370 kts | 228° |
| 2026-05-08 02:09 | 40.25682 | -73.07684 | 33893 ft | 371 kts | 228° |
| 2026-05-08 02:10 | 40.21805 | -73.12071 | 33899 ft | 371 kts | 228° |
| 2026-05-08 02:10 | 40.17903 | -73.16488 | 33896 ft | 371 kts | 228° |
| 2026-05-08 02:11 | 40.13999 | -73.20893 | 33898 ft | 371 kts | 228° |
| 2026-05-08 02:11 | 40.10079 | -73.25294 | 33896 ft | 371 kts | 228° |
| 2026-05-08 02:12 | 40.06158 | -73.29694 | 33898 ft | 371 kts | 228° |
| 2026-05-08 02:12 | 40.02242 | -73.34093 | 33901 ft | 371 kts | 228° |
| 2026-05-08 02:13 | 39.98314 | -73.38486 | 33900 ft | 372 kts | 228° |
| 2026-05-08 02:13 | 39.94389 | -73.42869 | 33900 ft | 372 kts | 228° |
| 2026-05-08 02:14 | 39.90482 | -73.47224 | 33900 ft | 372 kts | 228° |
| 2026-05-08 02:14 | 39.86549 | -73.51598 | 33902 ft | 372 kts | 229° |
| 2026-05-08 02:15 | 39.82614 | -73.55976 | 33903 ft | 372 kts | 229° |
| 2026-05-08 02:15 | 39.78679 | -73.60357 | 33910 ft | 372 kts | 229° |
| 2026-05-08 02:16 | 39.74748 | -73.64733 | 33911 ft | 372 kts | 229° |
| 2026-05-08 02:16 | 39.70818 | -73.69109 | 33916 ft | 372 kts | 229° |
| 2026-05-08 02:17 | 39.66875 | -73.73475 | 33913 ft | 372 kts | 229° |
| 2026-05-08 02:17 | 39.62921 | -73.77833 | 33914 ft | 372 kts | 229° |
| 2026-05-08 02:18 | 39.58973 | -73.82192 | 33922 ft | 372 kts | 229° |
| 2026-05-08 02:18 | 39.55032 | -73.86550 | 33930 ft | 372 kts | 229° |
| 2026-05-08 02:19 | 39.51091 | -73.90897 | 33923 ft | 372 kts | 229° |
| 2026-05-08 02:19 | 39.47167 | -73.95209 | 33933 ft | 372 kts | 229° |
| 2026-05-08 02:20 | 39.43213 | -73.99544 | 33932 ft | 372 kts | 229° |
| 2026-05-08 02:20 | 39.39265 | -74.03875 | 33932 ft | 372 kts | 229° |
| 2026-05-08 02:21 | 39.35313 | -74.08206 | 33932 ft | 372 kts | 229° |
| 2026-05-08 02:21 | 39.31357 | -74.12524 | 33929 ft | 372 kts | 229° |
| 2026-05-08 02:22 | 39.27392 | -74.16831 | 33926 ft | 372 kts | 229° |
| 2026-05-08 02:22 | 39.23430 | -74.21138 | 33922 ft | 372 kts | 229° |
| 2026-05-08 02:23 | 39.19470 | -74.25442 | 33921 ft | 372 kts | 229° |
| 2026-05-08 02:23 | 39.15507 | -74.29741 | 33923 ft | 372 kts | 229° |
| 2026-05-08 02:24 | 39.11539 | -74.34036 | 33919 ft | 372 kts | 229° |
| 2026-05-08 02:24 | 39.07573 | -74.38329 | 33923 ft | 372 kts | 229° |
| 2026-05-08 02:25 | 39.03602 | -74.42611 | 33932 ft | 373 kts | 229° |
| 2026-05-08 02:25 | 39.00300 | -74.46177 | 33936 ft | 373 kts | 229° |
| 2026-05-08 02:26 | 38.96388 | -74.50520 | 33938 ft | 367 kts | 235° |
| 2026-05-08 02:26 | 38.93655 | -74.55841 | 33946 ft | 352 kts | 252° |
| 2026-05-08 02:27 | 38.92347 | -74.61845 | 33955 ft | 349 kts | 258° |
| 2026-05-08 02:27 | 38.91170 | -74.67892 | 33961 ft | 349 kts | 258° |
| 2026-05-08 02:28 | 38.89982 | -74.73927 | 33960 ft | 349 kts | 258° |
| 2026-05-08 02:28 | 38.88810 | -74.79962 | 33966 ft | 348 kts | 258° |
| 2026-05-08 02:29 | 38.88238 | -74.82985 | 33753 ft | 348 kts | 258° |
| 2026-05-08 02:29 | 38.87673 | -74.86000 | 33351 ft | 347 kts | 258° |
| 2026-05-08 02:29 | 38.87110 | -74.89013 | 32957 ft | 348 kts | 258° |
| 2026-05-08 02:29 | 38.86542 | -74.92034 | 32567 ft | 349 kts | 258° |
| 2026-05-08 02:30 | 38.85975 | -74.95031 | 32186 ft | 350 kts | 258° |
| 2026-05-08 02:30 | 38.85392 | -74.98093 | 31490 ft | 346 kts | 258° |
| 2026-05-08 02:30 | 38.84826 | -75.01063 | 30133 ft | 349 kts | 258° |
| 2026-05-08 02:30 | 38.84243 | -75.04122 | 28429 ft | 355 kts | 257° |
| 2026-05-08 02:31 | 38.83653 | -75.07203 | 27061 ft | 355 kts | 257° |
| 2026-05-08 02:31 | 38.83066 | -75.10256 | 25892 ft | 350 kts | 257° |
| 2026-05-08 02:31 | 38.82487 | -75.13270 | 24761 ft | 346 kts | 256° |
| 2026-05-08 02:31 | 38.81912 | -75.16262 | 23713 ft | 346 kts | 256° |
| 2026-05-08 02:32 | 38.81338 | -75.19263 | 22983 ft | 346 kts | 256° |
| 2026-05-08 02:32 | 38.80908 | -75.22284 | 22286 ft | 344 kts | 263° |
| 2026-05-08 02:32 | 38.80715 | -75.25349 | 21437 ft | 346 kts | 264° |
| 2026-05-08 02:32 | 38.80529 | -75.28429 | 20705 ft | 346 kts | 264° |
| 2026-05-08 02:33 | 38.80342 | -75.31508 | 20071 ft | 346 kts | 264° |
| 2026-05-08 02:33 | 38.80155 | -75.34583 | 19633 ft | 347 kts | 264° |
| 2026-05-08 02:33 | 38.79965 | -75.37660 | 19203 ft | 347 kts | 264° |
| 2026-05-08 02:33 | 38.79773 | -75.40748 | 18779 ft | 346 kts | 264° |
| 2026-05-08 02:34 | 38.79578 | -75.43816 | 18360 ft | 345 kts | 264° |
| 2026-05-08 02:34 | 38.79382 | -75.46880 | 17890 ft | 344 kts | 264° |
| 2026-05-08 02:34 | 38.79190 | -75.49890 | 17419 ft | 342 kts | 264° |
| 2026-05-08 02:34 | 38.78994 | -75.52957 | 16941 ft | 339 kts | 264° |
| 2026-05-08 02:35 | 38.78804 | -75.55914 | 16482 ft | 337 kts | 264° |
| 2026-05-08 02:35 | 38.78613 | -75.58900 | 16027 ft | 335 kts | 264° |
| 2026-05-08 02:35 | 38.78423 | -75.61868 | 15573 ft | 333 kts | 263° |
| 2026-05-08 02:35 | 38.78234 | -75.64817 | 15128 ft | 331 kts | 263° |
| 2026-05-08 02:36 | 38.78044 | -75.67745 | 14688 ft | 329 kts | 263° |
| 2026-05-08 02:36 | 38.77854 | -75.70657 | 14257 ft | 327 kts | 263° |
| 2026-05-08 02:36 | 38.77664 | -75.73560 | 13839 ft | 326 kts | 263° |
| 2026-05-08 02:36 | 38.77473 | -75.76448 | 13372 ft | 324 kts | 263° |
| 2026-05-08 02:37 | 38.77281 | -75.79326 | 12891 ft | 323 kts | 264° |
| 2026-05-08 02:37 | 38.77089 | -75.82189 | 12426 ft | 322 kts | 264° |
| 2026-05-08 02:37 | 38.76896 | -75.85053 | 11966 ft | 322 kts | 264° |
| 2026-05-08 02:37 | 38.76706 | -75.87905 | 11510 ft | 321 kts | 265° |
| 2026-05-08 02:38 | 38.76518 | -75.90753 | 11060 ft | 320 kts | 265° |
| 2026-05-08 02:38 | 38.76332 | -75.93554 | 10623 ft | 319 kts | 265° |
| 2026-05-08 02:38 | 38.76143 | -75.96381 | 10183 ft | 318 kts | 266° |
| 2026-05-08 02:38 | 38.75951 | -75.99199 | 9735 ft | 317 kts | 266° |
| 2026-05-08 02:39 | 38.75759 | -76.02014 | 9255 ft | 317 kts | 266° |
| 2026-05-08 02:39 | 38.75563 | -76.04829 | 8993 ft | 318 kts | 266° |
| 2026-05-08 02:39 | 38.75539 | -76.07662 | 9006 ft | 318 kts | 276° |
| 2026-05-08 02:39 | 38.75803 | -76.10471 | 9006 ft | 314 kts | 277° |
| 2026-05-08 02:40 | 38.76065 | -76.13218 | 9004 ft | 309 kts | 277° |
| 2026-05-08 02:40 | 38.76324 | -76.15950 | 9011 ft | 308 kts | 277° |
| 2026-05-08 02:40 | 38.76582 | -76.18677 | 9010 ft | 308 kts | 277° |
| 2026-05-08 02:40 | 38.76838 | -76.21402 | 9010 ft | 308 kts | 277° |
| 2026-05-08 02:41 | 38.77093 | -76.24128 | 9006 ft | 308 kts | 277° |
| 2026-05-08 02:41 | 38.77348 | -76.26859 | 9008 ft | 308 kts | 277° |
| 2026-05-08 02:41 | 38.77602 | -76.29589 | 9008 ft | 308 kts | 277° |
| 2026-05-08 02:41 | 38.77855 | -76.32319 | 9005 ft | 309 kts | 277° |
| 2026-05-08 02:42 | 38.78107 | -76.35048 | 9009 ft | 309 kts | 277° |
| 2026-05-08 02:42 | 38.78354 | -76.37746 | 9002 ft | 297 kts | 277° |
| 2026-05-08 02:42 | 38.78589 | -76.40320 | 8998 ft | 288 kts | 277° |
| 2026-05-08 02:42 | 38.78823 | -76.42862 | 9009 ft | 287 kts | 277° |
| 2026-05-08 02:43 | 38.79055 | -76.45390 | 9006 ft | 286 kts | 277° |
| 2026-05-08 02:43 | 38.79283 | -76.47899 | 9006 ft | 286 kts | 277° |
| 2026-05-08 02:43 | 38.79514 | -76.50438 | 9010 ft | 287 kts | 277° |
| 2026-05-08 02:43 | 38.79743 | -76.52960 | 9002 ft | 280 kts | 277° |
| 2026-05-08 02:44 | 38.79904 | -76.55373 | 9008 ft | 264 kts | 275° |
| 2026-05-08 02:44 | 38.79989 | -76.57670 | 8997 ft | 255 kts | 274° |
| 2026-05-08 02:44 | 38.80050 | -76.59938 | 9008 ft | 254 kts | 274° |
| 2026-05-08 02:44 | 38.80109 | -76.62202 | 9010 ft | 254 kts | 274° |
| 2026-05-08 02:45 | 38.80173 | -76.64466 | 9008 ft | 254 kts | 274° |
| 2026-05-08 02:45 | 38.80241 | -76.66732 | 8999 ft | 254 kts | 274° |
| 2026-05-08 02:45 | 38.80310 | -76.68999 | 8889 ft | 256 kts | 274° |
| 2026-05-08 02:45 | 38.80381 | -76.71276 | 8547 ft | 254 kts | 274° |
| 2026-05-08 02:46 | 38.80456 | -76.73532 | 8207 ft | 253 kts | 274° |
| 2026-05-08 02:46 | 38.80534 | -76.75785 | 7871 ft | 253 kts | 276° |
| 2026-05-08 02:46 | 38.80888 | -76.77981 | 7535 ft | 251 kts | 291° |
| 2026-05-08 02:46 | 38.81720 | -76.79935 | 7223 ft | 250 kts | 307° |
| 2026-05-08 02:47 | 38.82812 | -76.81677 | 6948 ft | 251 kts | 308° |
| 2026-05-08 02:47 | 38.83906 | -76.83426 | 6675 ft | 251 kts | 308° |
| 2026-05-08 02:47 | 38.84995 | -76.85175 | 6401 ft | 251 kts | 308° |
| 2026-05-08 02:47 | 38.86069 | -76.86906 | 6120 ft | 251 kts | 308° |
| 2026-05-08 02:48 | 38.87121 | -76.88602 | 5838 ft | 250 kts | 309° |
| 2026-05-08 02:48 | 38.88244 | -76.90272 | 5562 ft | 250 kts | 315° |
| 2026-05-08 02:48 | 38.89476 | -76.91839 | 5291 ft | 249 kts | 315° |
| 2026-05-08 02:48 | 38.90719 | -76.93426 | 4996 ft | 248 kts | 314° |
| 2026-05-08 02:49 | 38.91924 | -76.94965 | 4728 ft | 247 kts | 314° |
| 2026-05-08 02:49 | 38.93134 | -76.96525 | 4444 ft | 247 kts | 314° |
| 2026-05-08 02:49 | 38.94351 | -76.98085 | 4159 ft | 247 kts | 314° |
| 2026-05-08 02:49 | 38.95561 | -76.99628 | 3878 ft | 241 kts | 314° |
| 2026-05-08 02:50 | 38.96716 | -77.01098 | 3596 ft | 227 kts | 314° |
| 2026-05-08 02:50 | 38.97808 | -77.02492 | 3317 ft | 215 kts | 314° |
| 2026-05-08 02:50 | 38.98843 | -77.03818 | 3088 ft | 207 kts | 314° |
| 2026-05-08 02:50 | 38.99856 | -77.05126 | 3005 ft | 205 kts | 313° |
| 2026-05-08 02:51 | 39.00863 | -77.06430 | 3016 ft | 206 kts | 313° |
| 2026-05-08 02:51 | 39.01869 | -77.07733 | 3019 ft | 205 kts | 313° |
| 2026-05-08 02:51 | 39.02870 | -77.09028 | 3014 ft | 204 kts | 313° |
| 2026-05-08 02:51 | 39.03872 | -77.10323 | 3024 ft | 204 kts | 313° |
| 2026-05-08 02:52 | 39.04874 | -77.11616 | 3022 ft | 204 kts | 313° |
| 2026-05-08 02:52 | 39.05849 | -77.12940 | 3022 ft | 204 kts | 311° |
| 2026-05-08 02:52 | 39.06805 | -77.14279 | 3020 ft | 203 kts | 311° |
| 2026-05-08 02:52 | 39.07760 | -77.15622 | 3010 ft | 203 kts | 311° |
| 2026-05-08 02:53 | 39.08547 | -77.17110 | 3016 ft | 202 kts | 287° |
| 2026-05-08 02:53 | 39.08538 | -77.18906 | 3018 ft | 207 kts | 253° |
| 2026-05-08 02:53 | 39.07674 | -77.20405 | 3013 ft | 217 kts | 221° |
| 2026-05-08 02:53 | 39.06257 | -77.21143 | 3016 ft | 227 kts | 189° |
| 2026-05-08 02:54 | 39.04685 | -77.20792 | 3016 ft | 236 kts | 157° |
| 2026-05-08 02:54 | 39.03218 | -77.19821 | 3016 ft | 236 kts | 154° |
| 2026-05-08 02:54 | 39.01775 | -77.18849 | 2794 ft | 233 kts | 155° |
| 2026-05-08 02:54 | 39.00332 | -77.17879 | 2714 ft | 233 kts | 155° |
| 2026-05-08 02:55 | 38.98942 | -77.16948 | 2700 ft | 218 kts | 155° |
| 2026-05-08 02:55 | 38.96429 | -77.15234 | 2709 ft | 197 kts | 149° |
| 2026-05-08 02:55 | 38.95369 | -77.14164 | 2705 ft | 197 kts | 141° |
| 2026-05-08 02:56 | 38.94333 | -77.13002 | 2468 ft | 193 kts | 141° |
| 2026-05-08 02:56 | 38.93336 | -77.11863 | 2242 ft | 191 kts | 140° |
| 2026-05-08 02:56 | 38.92393 | -77.10746 | 1970 ft | 182 kts | 140° |
| 2026-05-08 02:56 | 38.91488 | -77.09662 | 1690 ft | 172 kts | 139° |
| 2026-05-08 02:57 | 38.90843 | -77.08446 | 1454 ft | 161 kts | 116° |
| 2026-05-08 02:57 | 38.90380 | -77.07177 | 1196 ft | 153 kts | 121° |
| 2026-05-08 02:57 | 38.89786 | -77.06089 | 889 ft | 145 kts | 135° |
| 2026-05-08 02:57 | 38.89062 | -77.05225 | 682 ft | 140 kts | 142° |
| 2026-05-08 02:58 | 38.88306 | -77.04459 | 524 ft | 137 kts | 149° |
| 2026-05-08 02:58 | 38.87432 | -77.04018 | 334 ft | 135 kts | 171° |
| 2026-05-08 02:58 | 38.86508 | -77.03910 | 136 ft | 133 kts | 176° |
| 2026-05-08 02:58 | 38.85593 | -77.03820 | 25 ft | 123 kts | 175° |
| 2026-05-08 02:59 | 38.84915 | -77.03754 | 20 ft | 63 kts | 175° |
| 2026-05-08 02:59 | 38.84642 | -77.03727 | 20 ft | 32 kts | 175° |
| 2026-05-08 02:59 | 38.84445 | -77.03713 | 20 ft | 23 kts | 191° |
| 2026-05-08 02:59 | 38.84391 | -77.03806 | 23 ft | 8 kts | 271° |
| 2026-05-08 03:00 | 38.84422 | -77.03845 | 23 ft | 8 kts | 349° |
| 2026-05-08 03:00 | 38.84490 | -77.03851 | 21 ft | 12 kts | 356° |
| 2026-05-08 03:00 | 38.84585 | -77.03860 | 21 ft | 15 kts | 355° |
| 2026-05-08 03:00 | 38.84693 | -77.03872 | 22 ft | 16 kts | 355° |
| 2026-05-08 03:01 | 38.84817 | -77.03885 | 19 ft | 20 kts | 355° |
| 2026-05-08 03:01 | 38.84893 | -77.03936 | 18 ft | 11 kts | 314° |
| 2026-05-08 03:01 | 38.84975 | -77.03959 | 18 ft | 14 kts | 357° |
| 2026-05-08 03:01 | 38.85081 | -77.03969 | 18 ft | 16 kts | 355° |
| 2026-05-08 03:02 | 38.85200 | -77.03981 | 21 ft | 19 kts | 355° |
| 2026-05-08 03:02 | 38.85328 | -77.03999 | 21 ft | 16 kts | 354° |
| 2026-05-08 03:02 | 38.85435 | -77.04005 | 22 ft | 10 kts | 356° |
| 2026-05-08 03:02 | 38.85474 | -77.04037 | 22 ft | 6 kts | 264° |
| 2026-05-08 03:03 | 38.85455 | -77.04082 | 22 ft | 3 kts | 240° |
| 2026-05-08 03:03 | 38.85452 | -77.04090 | 25 ft | 0 kts | 240° |